sensor_id;sensor_type;location;lat;lon;timestamp;P1;durP1;ratioP1;P2;durP2;ratioP2
20084;SDS011;10202;48.474;9.138;2023-10-08T00:02:46;13.75;;;2.80;;
20084;SDS011;10202;48.474;9.138;2023-10-08T00:05:11;7.78;;;2.83;;
20084;SDS011;10202;48.474;9.138;2023-10-08T00:07:41;12.43;;;2.83;;
20084;SDS011;10202;48.474;9.138;2023-10-08T00:10:08;10.73;;;2.97;;
20084;SDS011;10202;48.474;9.138;2023-10-08T00:12:36;14.13;;;2.95;;
20084;SDS011;10202;48.474;9.138;2023-10-08T00:15:01;9.43;;;3.10;;
20084;SDS011;10202;48.474;9.138;2023-10-08T00:17:36;11.35;;;3.75;;
20084;SDS011;10202;48.474;9.138;2023-10-08T00:20:04;9.00;;;2.90;;
20084;SDS011;10202;48.474;9.138;2023-10-08T00:22:32;10.32;;;2.95;;
20084;SDS011;10202;48.474;9.138;2023-10-08T00:25:01;21.02;;;3.22;;
20084;SDS011;10202;48.474;9.138;2023-10-08T00:27:29;14.95;;;2.78;;
20084;SDS011;10202;48.474;9.138;2023-10-08T00:30:04;7.75;;;3.00;;
20084;SDS011;10202;48.474;9.138;2023-10-08T00:32:45;10.35;;;3.38;;
20084;SDS011;10202;48.474;9.138;2023-10-08T00:35:16;10.82;;;2.75;;
20084;SDS011;10202;48.474;9.138;2023-10-08T00:37:47;9.27;;;3.30;;
20084;SDS011;10202;48.474;9.138;2023-10-08T00:40:16;13.75;;;3.25;;
20084;SDS011;10202;48.474;9.138;2023-10-08T00:42:46;8.13;;;3.03;;
20084;SDS011;10202;48.474;9.138;2023-10-08T00:45:12;9.10;;;2.58;;
20084;SDS011;10202;48.474;9.138;2023-10-08T00:47:41;7.72;;;2.45;;
20084;SDS011;10202;48.474;9.138;2023-10-08T00:50:10;9.90;;;2.95;;
20084;SDS011;10202;48.474;9.138;2023-10-08T00:52:47;15.32;;;2.97;;
20084;SDS011;10202;48.474;9.138;2023-10-08T00:55:37;10.73;;;2.67;;
20084;SDS011;10202;48.474;9.138;2023-10-08T00:58:11;12.18;;;2.53;;
20084;SDS011;10202;48.474;9.138;2023-10-08T01:00:53;12.15;;;3.03;;
20084;SDS011;10202;48.474;9.138;2023-10-08T01:03:26;13.48;;;2.42;;
20084;SDS011;10202;48.474;9.138;2023-10-08T01:05:53;7.90;;;3.10;;
20084;SDS011;10202;48.474;9.138;2023-10-08T01:08:19;12.85;;;3.08;;
20084;SDS011;10202;48.474;9.138;2023-10-08T01:10:57;13.40;;;2.85;;
20084;SDS011;10202;48.474;9.138;2023-10-08T01:13:26;11.98;;;3.47;;
20084;SDS011;10202;48.474;9.138;2023-10-08T01:15:52;12.18;;;2.83;;
20084;SDS011;10202;48.474;9.138;2023-10-08T01:18:20;15.05;;;2.65;;
20084;SDS011;10202;48.474;9.138;2023-10-08T01:20:56;12.30;;;2.58;;
20084;SDS011;10202;48.474;9.138;2023-10-08T01:23:29;12.85;;;3.22;;
20084;SDS011;10202;48.474;9.138;2023-10-08T01:25:57;11.15;;;2.67;;
20084;SDS011;10202;48.474;9.138;2023-10-08T01:28:40;17.67;;;2.95;;
20084;SDS011;10202;48.474;9.138;2023-10-08T01:31:07;10.55;;;2.53;;
20084;SDS011;10202;48.474;9.138;2023-10-08T01:33:35;13.80;;;2.50;;
20084;SDS011;10202;48.474;9.138;2023-10-08T01:36:14;9.52;;;2.50;;
20084;SDS011;10202;48.474;9.138;2023-10-08T01:38:39;7.80;;;2.58;;
20084;SDS011;10202;48.474;9.138;2023-10-08T01:41:09;8.57;;;2.55;;
20084;SDS011;10202;48.474;9.138;2023-10-08T01:43:44;7.88;;;2.95;;
20084;SDS011;10202;48.474;9.138;2023-10-08T01:46:13;19.15;;;3.10;;
20084;SDS011;10202;48.474;9.138;2023-10-08T01:48:41;13.05;;;2.53;;
20084;SDS011;10202;48.474;9.138;2023-10-08T01:51:10;15.63;;;3.40;;
20084;SDS011;10202;48.474;9.138;2023-10-08T01:53:38;12.23;;;3.15;;
20084;SDS011;10202;48.474;9.138;2023-10-08T01:56:04;9.27;;;3.05;;
20084;SDS011;10202;48.474;9.138;2023-10-08T01:58:30;8.27;;;2.70;;
20084;SDS011;10202;48.474;9.138;2023-10-08T02:00:58;7.05;;;2.78;;
20084;SDS011;10202;48.474;9.138;2023-10-08T02:03:26;10.50;;;3.33;;
20084;SDS011;10202;48.474;9.138;2023-10-08T02:05:56;11.25;;;2.78;;
20084;SDS011;10202;48.474;9.138;2023-10-08T02:08:25;8.52;;;2.72;;
20084;SDS011;10202;48.474;9.138;2023-10-08T02:10:51;12.07;;;3.40;;
20084;SDS011;10202;48.474;9.138;2023-10-08T02:13:17;10.77;;;2.70;;
20084;SDS011;10202;48.474;9.138;2023-10-08T02:15:51;12.10;;;3.10;;
20084;SDS011;10202;48.474;9.138;2023-10-08T02:18:19;10.45;;;2.63;;
20084;SDS011;10202;48.474;9.138;2023-10-08T02:20:45;11.57;;;2.75;;
20084;SDS011;10202;48.474;9.138;2023-10-08T02:23:17;13.80;;;3.10;;
20084;SDS011;10202;48.474;9.138;2023-10-08T02:25:43;8.00;;;2.58;;
20084;SDS011;10202;48.474;9.138;2023-10-08T02:28:09;19.63;;;2.78;;
20084;SDS011;10202;48.474;9.138;2023-10-08T02:30:37;11.13;;;2.55;;
20084;SDS011;10202;48.474;9.138;2023-10-08T02:33:06;15.52;;;2.53;;
20084;SDS011;10202;48.474;9.138;2023-10-08T02:35:41;10.38;;;2.60;;
20084;SDS011;10202;48.474;9.138;2023-10-08T02:38:12;11.23;;;2.45;;
20084;SDS011;10202;48.474;9.138;2023-10-08T02:40:43;6.93;;;2.50;;
20084;SDS011;10202;48.474;9.138;2023-10-08T02:43:14;16.83;;;3.08;;
20084;SDS011;10202;48.474;9.138;2023-10-08T02:45:41;6.43;;;2.00;;
20084;SDS011;10202;48.474;9.138;2023-10-08T02:48:09;10.65;;;2.55;;
20084;SDS011;10202;48.474;9.138;2023-10-08T02:50:44;7.45;;;2.17;;
20084;SDS011;10202;48.474;9.138;2023-10-08T02:53:10;9.95;;;2.47;;
20084;SDS011;10202;48.474;9.138;2023-10-08T02:55:39;14.57;;;2.70;;
20084;SDS011;10202;48.474;9.138;2023-10-08T02:58:10;9.23;;;2.55;;
20084;SDS011;10202;48.474;9.138;2023-10-08T03:00:41;16.40;;;2.53;;
20084;SDS011;10202;48.474;9.138;2023-10-08T03:03:14;11.73;;;2.45;;
20084;SDS011;10202;48.474;9.138;2023-10-08T03:05:47;12.05;;;2.65;;
20084;SDS011;10202;48.474;9.138;2023-10-08T03:08:21;13.98;;;3.03;;
20084;SDS011;10202;48.474;9.138;2023-10-08T03:10:48;8.00;;;2.08;;
20084;SDS011;10202;48.474;9.138;2023-10-08T03:13:20;8.05;;;3.20;;
20084;SDS011;10202;48.474;9.138;2023-10-08T03:15:51;12.60;;;2.70;;
20084;SDS011;10202;48.474;9.138;2023-10-08T03:18:30;18.08;;;3.50;;
20084;SDS011;10202;48.474;9.138;2023-10-08T03:21:02;14.82;;;2.63;;
20084;SDS011;10202;48.474;9.138;2023-10-08T03:23:34;14.38;;;3.05;;
20084;SDS011;10202;48.474;9.138;2023-10-08T03:26:00;15.98;;;2.78;;
20084;SDS011;10202;48.474;9.138;2023-10-08T03:28:37;17.67;;;3.20;;
20084;SDS011;10202;48.474;9.138;2023-10-08T03:31:03;14.02;;;2.85;;
20084;SDS011;10202;48.474;9.138;2023-10-08T03:33:41;10.35;;;2.50;;
20084;SDS011;10202;48.474;9.138;2023-10-08T03:36:17;11.43;;;3.00;;
20084;SDS011;10202;48.474;9.138;2023-10-08T03:39:01;11.60;;;2.78;;
20084;SDS011;10202;48.474;9.138;2023-10-08T03:41:36;9.23;;;2.70;;
20084;SDS011;10202;48.474;9.138;2023-10-08T03:44:08;8.68;;;2.78;;
20084;SDS011;10202;48.474;9.138;2023-10-08T03:46:42;10.95;;;2.97;;
20084;SDS011;10202;48.474;9.138;2023-10-08T03:49:15;10.35;;;2.38;;
20084;SDS011;10202;48.474;9.138;2023-10-08T03:51:47;12.18;;;3.00;;
20084;SDS011;10202;48.474;9.138;2023-10-08T03:54:13;9.48;;;2.28;;
20084;SDS011;10202;48.474;9.138;2023-10-08T03:56:42;11.52;;;2.80;;
20084;SDS011;10202;48.474;9.138;2023-10-08T03:59:13;10.90;;;2.50;;
20084;SDS011;10202;48.474;9.138;2023-10-08T04:01:59;6.35;;;2.53;;
20084;SDS011;10202;48.474;9.138;2023-10-08T04:04:38;12.38;;;2.50;;
20084;SDS011;10202;48.474;9.138;2023-10-08T04:07:25;8.05;;;2.72;;
20084;SDS011;10202;48.474;9.138;2023-10-08T04:10:29;11.65;;;2.53;;
20084;SDS011;10202;48.474;9.138;2023-10-08T04:13:04;15.30;;;2.58;;
20084;SDS011;10202;48.474;9.138;2023-10-08T04:15:36;9.95;;;2.60;;
20084;SDS011;10202;48.474;9.138;2023-10-08T04:18:09;11.75;;;2.70;;
20084;SDS011;10202;48.474;9.138;2023-10-08T04:20:35;8.45;;;2.40;;
20084;SDS011;10202;48.474;9.138;2023-10-08T04:23:09;6.57;;;2.63;;
20084;SDS011;10202;48.474;9.138;2023-10-08T04:25:46;9.82;;;2.70;;
20084;SDS011;10202;48.474;9.138;2023-10-08T04:28:12;15.18;;;2.40;;
20084;SDS011;10202;48.474;9.138;2023-10-08T04:30:39;12.93;;;2.60;;
20084;SDS011;10202;48.474;9.138;2023-10-08T04:33:08;22.17;;;2.50;;
20084;SDS011;10202;48.474;9.138;2023-10-08T04:35:38;11.57;;;2.97;;
20084;SDS011;10202;48.474;9.138;2023-10-08T04:38:27;9.18;;;2.83;;
20084;SDS011;10202;48.474;9.138;2023-10-08T04:40:54;10.15;;;2.58;;
20084;SDS011;10202;48.474;9.138;2023-10-08T04:43:23;11.18;;;2.22;;
20084;SDS011;10202;48.474;9.138;2023-10-08T04:45:58;9.05;;;2.92;;
20084;SDS011;10202;48.474;9.138;2023-10-08T04:48:26;15.00;;;3.00;;
20084;SDS011;10202;48.474;9.138;2023-10-08T04:50:57;9.93;;;3.10;;
20084;SDS011;10202;48.474;9.138;2023-10-08T04:53:32;8.43;;;2.70;;
20084;SDS011;10202;48.474;9.138;2023-10-08T04:56:02;9.70;;;2.28;;
20084;SDS011;10202;48.474;9.138;2023-10-08T04:58:38;11.30;;;2.97;;
20084;SDS011;10202;48.474;9.138;2023-10-08T05:01:07;13.68;;;2.78;;
20084;SDS011;10202;48.474;9.138;2023-10-08T05:03:51;8.38;;;2.47;;
20084;SDS011;10202;48.474;9.138;2023-10-08T05:09:03;17.02;;;2.80;;
20084;SDS011;10202;48.474;9.138;2023-10-08T05:11:58;10.52;;;2.88;;
20084;SDS011;10202;48.474;9.138;2023-10-08T05:14:44;11.68;;;2.55;;
20084;SDS011;10202;48.474;9.138;2023-10-08T05:17:35;9.63;;;2.40;;
20084;SDS011;10202;48.474;9.138;2023-10-08T05:20:21;9.85;;;2.83;;
20084;SDS011;10202;48.474;9.138;2023-10-08T05:23:12;17.90;;;2.75;;
20084;SDS011;10202;48.474;9.138;2023-10-08T05:25:50;12.80;;;2.28;;
20084;SDS011;10202;48.474;9.138;2023-10-08T05:28:38;13.48;;;2.67;;
20084;SDS011;10202;48.474;9.138;2023-10-08T05:31:33;13.13;;;2.85;;
20084;SDS011;10202;48.474;9.138;2023-10-08T05:34:08;19.00;;;2.80;;
20084;SDS011;10202;48.474;9.138;2023-10-08T05:36:58;10.27;;;2.35;;
20084;SDS011;10202;48.474;9.138;2023-10-08T05:39:29;15.10;;;2.95;;
20084;SDS011;10202;48.474;9.138;2023-10-08T05:42:05;8.23;;;2.70;;
20084;SDS011;10202;48.474;9.138;2023-10-08T05:44:56;10.32;;;2.17;;
20084;SDS011;10202;48.474;9.138;2023-10-08T05:47:34;15.70;;;2.85;;
20084;SDS011;10202;48.474;9.138;2023-10-08T05:50:03;15.75;;;2.55;;
20084;SDS011;10202;48.474;9.138;2023-10-08T05:52:42;10.90;;;2.80;;
20084;SDS011;10202;48.474;9.138;2023-10-08T05:55:25;9.82;;;2.35;;
20084;SDS011;10202;48.474;9.138;2023-10-08T05:57:55;9.20;;;2.47;;
20084;SDS011;10202;48.474;9.138;2023-10-08T06:00:49;11.98;;;2.63;;
20084;SDS011;10202;48.474;9.138;2023-10-08T06:03:34;9.20;;;2.35;;
20084;SDS011;10202;48.474;9.138;2023-10-08T06:06:08;10.55;;;2.75;;
20084;SDS011;10202;48.474;9.138;2023-10-08T06:08:36;6.50;;;2.35;;
20084;SDS011;10202;48.474;9.138;2023-10-08T06:11:39;13.85;;;2.72;;
20084;SDS011;10202;48.474;9.138;2023-10-08T06:14:23;15.30;;;2.50;;
20084;SDS011;10202;48.474;9.138;2023-10-08T06:17:17;15.38;;;2.63;;
20084;SDS011;10202;48.474;9.138;2023-10-08T06:20:01;10.73;;;2.42;;
20084;SDS011;10202;48.474;9.138;2023-10-08T06:22:37;9.13;;;2.47;;
20084;SDS011;10202;48.474;9.138;2023-10-08T06:25:02;10.65;;;2.33;;
20084;SDS011;10202;48.474;9.138;2023-10-08T06:27:49;10.57;;;2.50;;
20084;SDS011;10202;48.474;9.138;2023-10-08T06:30:20;11.02;;;2.90;;
20084;SDS011;10202;48.474;9.138;2023-10-08T06:32:46;10.50;;;2.88;;
20084;SDS011;10202;48.474;9.138;2023-10-08T06:35:15;7.47;;;2.08;;
20084;SDS011;10202;48.474;9.138;2023-10-08T06:37:48;13.10;;;2.70;;
20084;SDS011;10202;48.474;9.138;2023-10-08T06:40:20;8.00;;;2.20;;
20084;SDS011;10202;48.474;9.138;2023-10-08T06:43:04;13.65;;;3.08;;
20084;SDS011;10202;48.474;9.138;2023-10-08T06:45:46;11.00;;;2.50;;
20084;SDS011;10202;48.474;9.138;2023-10-08T06:48:16;12.48;;;2.63;;
20084;SDS011;10202;48.474;9.138;2023-10-08T06:50:55;15.40;;;3.30;;
20084;SDS011;10202;48.474;9.138;2023-10-08T06:53:31;11.75;;;3.17;;
20084;SDS011;10202;48.474;9.138;2023-10-08T06:55:57;11.25;;;2.67;;
20084;SDS011;10202;48.474;9.138;2023-10-08T06:58:23;8.82;;;2.30;;
20084;SDS011;10202;48.474;9.138;2023-10-08T07:00:51;9.55;;;2.45;;
20084;SDS011;10202;48.474;9.138;2023-10-08T07:03:20;9.13;;;2.15;;
20084;SDS011;10202;48.474;9.138;2023-10-08T07:05:46;12.48;;;2.70;;
20084;SDS011;10202;48.474;9.138;2023-10-08T07:08:29;10.35;;;2.30;;
20084;SDS011;10202;48.474;9.138;2023-10-08T07:11:01;6.32;;;2.10;;
20084;SDS011;10202;48.474;9.138;2023-10-08T07:13:33;14.05;;;2.80;;
20084;SDS011;10202;48.474;9.138;2023-10-08T07:16:03;7.68;;;2.22;;
20084;SDS011;10202;48.474;9.138;2023-10-08T07:18:35;8.13;;;2.33;;
20084;SDS011;10202;48.474;9.138;2023-10-08T07:21:03;9.90;;;2.10;;
20084;SDS011;10202;48.474;9.138;2023-10-08T07:23:38;13.57;;;2.03;;
20084;SDS011;10202;48.474;9.138;2023-10-08T07:26:21;9.82;;;2.67;;
20084;SDS011;10202;48.474;9.138;2023-10-08T07:29:01;9.65;;;2.17;;
20084;SDS011;10202;48.474;9.138;2023-10-08T07:31:33;6.60;;;2.25;;
20084;SDS011;10202;48.474;9.138;2023-10-08T07:34:03;10.98;;;2.10;;
20084;SDS011;10202;48.474;9.138;2023-10-08T07:36:48;6.78;;;1.90;;
20084;SDS011;10202;48.474;9.138;2023-10-08T07:39:18;9.77;;;2.85;;
20084;SDS011;10202;48.474;9.138;2023-10-08T07:41:56;14.38;;;4.35;;
20084;SDS011;10202;48.474;9.138;2023-10-08T07:44:24;14.57;;;2.65;;
20084;SDS011;10202;48.474;9.138;2023-10-08T07:46:50;9.75;;;2.58;;
20084;SDS011;10202;48.474;9.138;2023-10-08T07:49:19;8.52;;;2.42;;
20084;SDS011;10202;48.474;9.138;2023-10-08T07:51:45;7.57;;;2.33;;
20084;SDS011;10202;48.474;9.138;2023-10-08T07:54:16;12.07;;;2.63;;
20084;SDS011;10202;48.474;9.138;2023-10-08T07:56:54;14.00;;;2.85;;
20084;SDS011;10202;48.474;9.138;2023-10-08T07:59:40;5.20;;;2.20;;
20084;SDS011;10202;48.474;9.138;2023-10-08T08:02:07;10.60;;;2.13;;
20084;SDS011;10202;48.474;9.138;2023-10-08T08:04:41;8.88;;;2.67;;
20084;SDS011;10202;48.474;9.138;2023-10-08T08:07:13;8.55;;;2.65;;
20084;SDS011;10202;48.474;9.138;2023-10-08T08:09:42;5.45;;;2.13;;
20084;SDS011;10202;48.474;9.138;2023-10-08T08:12:19;7.90;;;2.53;;
20084;SDS011;10202;48.474;9.138;2023-10-08T08:14:46;6.65;;;2.22;;
20084;SDS011;10202;48.474;9.138;2023-10-08T08:17:15;7.47;;;2.70;;
20084;SDS011;10202;48.474;9.138;2023-10-08T08:19:44;14.23;;;2.40;;
20084;SDS011;10202;48.474;9.138;2023-10-08T08:22:16;8.43;;;3.03;;
20084;SDS011;10202;48.474;9.138;2023-10-08T08:24:56;8.27;;;2.65;;
20084;SDS011;10202;48.474;9.138;2023-10-08T08:27:31;6.63;;;2.53;;
20084;SDS011;10202;48.474;9.138;2023-10-08T08:30:03;8.35;;;2.47;;
20084;SDS011;10202;48.474;9.138;2023-10-08T08:32:39;10.95;;;2.08;;
20084;SDS011;10202;48.474;9.138;2023-10-08T08:35:06;14.07;;;2.67;;
20084;SDS011;10202;48.474;9.138;2023-10-08T08:37:32;9.07;;;2.03;;
20084;SDS011;10202;48.474;9.138;2023-10-08T08:40:01;14.07;;;2.38;;
20084;SDS011;10202;48.474;9.138;2023-10-08T08:42:31;5.35;;;2.60;;
20084;SDS011;10202;48.474;9.138;2023-10-08T08:45:00;9.80;;;2.65;;
20084;SDS011;10202;48.474;9.138;2023-10-08T08:47:28;8.93;;;2.40;;
20084;SDS011;10202;48.474;9.138;2023-10-08T08:49:56;6.13;;;2.25;;
20084;SDS011;10202;48.474;9.138;2023-10-08T08:52:35;7.25;;;2.28;;
20084;SDS011;10202;48.474;9.138;2023-10-08T08:55:03;7.10;;;2.45;;
20084;SDS011;10202;48.474;9.138;2023-10-08T08:57:46;12.18;;;2.25;;
20084;SDS011;10202;48.474;9.138;2023-10-08T09:00:13;6.15;;;2.10;;
20084;SDS011;10202;48.474;9.138;2023-10-08T09:02:43;7.07;;;2.50;;
20084;SDS011;10202;48.474;9.138;2023-10-08T09:05:10;9.55;;;2.40;;
20084;SDS011;10202;48.474;9.138;2023-10-08T09:10:23;9.55;;;2.28;;
20084;SDS011;10202;48.474;9.138;2023-10-08T09:12:55;11.60;;;2.35;;
20084;SDS011;10202;48.474;9.138;2023-10-08T09:15:26;10.73;;;2.25;;
20084;SDS011;10202;48.474;9.138;2023-10-08T09:17:52;9.70;;;2.25;;
20084;SDS011;10202;48.474;9.138;2023-10-08T09:20:20;11.45;;;2.95;;
20084;SDS011;10202;48.474;9.138;2023-10-08T09:23:07;8.40;;;2.95;;
20084;SDS011;10202;48.474;9.138;2023-10-08T09:25:40;14.10;;;2.78;;
20084;SDS011;10202;48.474;9.138;2023-10-08T09:28:09;10.32;;;2.40;;
20084;SDS011;10202;48.474;9.138;2023-10-08T09:30:38;6.10;;;2.65;;
20084;SDS011;10202;48.474;9.138;2023-10-08T09:33:09;14.43;;;2.67;;
20084;SDS011;10202;48.474;9.138;2023-10-08T09:35:37;11.63;;;2.92;;
20084;SDS011;10202;48.474;9.138;2023-10-08T09:38:03;8.93;;;2.65;;
20084;SDS011;10202;48.474;9.138;2023-10-08T09:40:29;12.00;;;3.00;;
20084;SDS011;10202;48.474;9.138;2023-10-08T09:42:58;9.40;;;2.65;;
20084;SDS011;10202;48.474;9.138;2023-10-08T09:45:31;6.35;;;3.03;;
20084;SDS011;10202;48.474;9.138;2023-10-08T09:47:56;10.80;;;2.83;;
20084;SDS011;10202;48.474;9.138;2023-10-08T09:50:27;7.95;;;2.78;;
20084;SDS011;10202;48.474;9.138;2023-10-08T09:53:00;7.05;;;2.50;;
20084;SDS011;10202;48.474;9.138;2023-10-08T09:55:31;20.17;;;2.75;;
20084;SDS011;10202;48.474;9.138;2023-10-08T09:58:01;8.60;;;3.00;;
20084;SDS011;10202;48.474;9.138;2023-10-08T10:00:29;12.55;;;3.03;;
20084;SDS011;10202;48.474;9.138;2023-10-08T10:02:59;12.32;;;2.90;;
20084;SDS011;10202;48.474;9.138;2023-10-08T10:05:32;9.27;;;3.10;;
20084;SDS011;10202;48.474;9.138;2023-10-08T10:08:02;11.95;;;2.80;;
20084;SDS011;10202;48.474;9.138;2023-10-08T10:10:33;13.38;;;3.42;;
20084;SDS011;10202;48.474;9.138;2023-10-08T10:13:03;12.27;;;2.92;;
20084;SDS011;10202;48.474;9.138;2023-10-08T10:15:32;15.45;;;3.33;;
20084;SDS011;10202;48.474;9.138;2023-10-08T10:23:34;10.88;;;2.75;;
20084;SDS011;10202;48.474;9.138;2023-10-08T10:26:03;10.88;;;3.00;;
20084;SDS011;10202;48.474;9.138;2023-10-08T10:28:31;9.63;;;3.00;;
20084;SDS011;10202;48.474;9.138;2023-10-08T10:30:58;13.85;;;3.42;;
20084;SDS011;10202;48.474;9.138;2023-10-08T10:33:31;12.95;;;2.90;;
20084;SDS011;10202;48.474;9.138;2023-10-08T10:36:00;16.45;;;3.10;;
20084;SDS011;10202;48.474;9.138;2023-10-08T10:38:26;19.95;;;3.05;;
20084;SDS011;10202;48.474;9.138;2023-10-08T10:40:55;17.02;;;3.70;;
20084;SDS011;10202;48.474;9.138;2023-10-08T10:43:35;11.35;;;3.00;;
20084;SDS011;10202;48.474;9.138;2023-10-08T10:46:05;19.85;;;3.00;;
20084;SDS011;10202;48.474;9.138;2023-10-08T10:48:51;17.98;;;3.35;;
20084;SDS011;10202;48.474;9.138;2023-10-08T10:51:30;18.85;;;3.45;;
20084;SDS011;10202;48.474;9.138;2023-10-08T10:53:55;10.60;;;3.03;;
20084;SDS011;10202;48.474;9.138;2023-10-08T10:56:37;13.55;;;3.25;;
20084;SDS011;10202;48.474;9.138;2023-10-08T10:59:08;12.68;;;2.90;;
20084;SDS011;10202;48.474;9.138;2023-10-08T11:01:52;12.13;;;3.35;;
20084;SDS011;10202;48.474;9.138;2023-10-08T11:04:22;16.02;;;3.63;;
20084;SDS011;10202;48.474;9.138;2023-10-08T11:06:54;14.90;;;3.88;;
20084;SDS011;10202;48.474;9.138;2023-10-08T11:09:25;12.30;;;3.17;;
20084;SDS011;10202;48.474;9.138;2023-10-08T11:12:18;18.80;;;4.35;;
20084;SDS011;10202;48.474;9.138;2023-10-08T11:14:50;12.52;;;3.20;;
20084;SDS011;10202;48.474;9.138;2023-10-08T11:17:26;10.30;;;3.00;;
20084;SDS011;10202;48.474;9.138;2023-10-08T11:19:53;14.02;;;3.33;;
20084;SDS011;10202;48.474;9.138;2023-10-08T11:22:21;13.68;;;3.35;;
20084;SDS011;10202;48.474;9.138;2023-10-08T11:24:48;14.02;;;3.40;;
20084;SDS011;10202;48.474;9.138;2023-10-08T11:27:14;12.38;;;3.47;;
20084;SDS011;10202;48.474;9.138;2023-10-08T11:29:45;10.80;;;3.50;;
20084;SDS011;10202;48.474;9.138;2023-10-08T11:32:16;13.88;;;3.22;;
20084;SDS011;10202;48.474;9.138;2023-10-08T11:34:54;17.20;;;3.22;;
20084;SDS011;10202;48.474;9.138;2023-10-08T11:37:27;12.95;;;3.17;;
20084;SDS011;10202;48.474;9.138;2023-10-08T11:39:58;11.73;;;3.53;;
20084;SDS011;10202;48.474;9.138;2023-10-08T11:42:34;8.98;;;3.08;;
20084;SDS011;10202;48.474;9.138;2023-10-08T11:45:00;12.90;;;3.03;;
20084;SDS011;10202;48.474;9.138;2023-10-08T11:47:49;12.80;;;3.17;;
20084;SDS011;10202;48.474;9.138;2023-10-08T11:50:22;15.70;;;3.50;;
20084;SDS011;10202;48.474;9.138;2023-10-08T11:52:56;15.07;;;3.40;;
20084;SDS011;10202;48.474;9.138;2023-10-08T11:55:29;10.02;;;3.40;;
20084;SDS011;10202;48.474;9.138;2023-10-08T11:58:10;9.35;;;3.30;;
20084;SDS011;10202;48.474;9.138;2023-10-08T12:00:38;20.10;;;4.15;;
20084;SDS011;10202;48.474;9.138;2023-10-08T12:03:15;9.50;;;2.72;;
20084;SDS011;10202;48.474;9.138;2023-10-08T12:05:47;15.05;;;3.78;;
20084;SDS011;10202;48.474;9.138;2023-10-08T12:08:17;18.35;;;3.28;;
20084;SDS011;10202;48.474;9.138;2023-10-08T12:10:48;15.30;;;3.60;;
20084;SDS011;10202;48.474;9.138;2023-10-08T12:13:23;15.30;;;3.35;;
20084;SDS011;10202;48.474;9.138;2023-10-08T12:15:52;13.90;;;3.92;;
20084;SDS011;10202;48.474;9.138;2023-10-08T12:18:27;13.77;;;3.47;;
20084;SDS011;10202;48.474;9.138;2023-10-08T12:20:53;13.15;;;3.42;;
20084;SDS011;10202;48.474;9.138;2023-10-08T12:23:19;21.73;;;3.65;;
20084;SDS011;10202;48.474;9.138;2023-10-08T12:25:57;17.23;;;3.50;;
20084;SDS011;10202;48.474;9.138;2023-10-08T12:28:23;11.50;;;3.28;;
20084;SDS011;10202;48.474;9.138;2023-10-08T12:30:49;17.77;;;3.67;;
20084;SDS011;10202;48.474;9.138;2023-10-08T12:33:21;16.33;;;3.55;;
20084;SDS011;10202;48.474;9.138;2023-10-08T12:35:54;17.33;;;3.38;;
20084;SDS011;10202;48.474;9.138;2023-10-08T12:38:23;21.60;;;4.13;;
20084;SDS011;10202;48.474;9.138;2023-10-08T12:40:53;16.25;;;3.33;;
20084;SDS011;10202;48.474;9.138;2023-10-08T12:43:21;18.92;;;4.05;;
20084;SDS011;10202;48.474;9.138;2023-10-08T12:45:50;21.17;;;4.25;;
20084;SDS011;10202;48.474;9.138;2023-10-08T12:48:23;16.42;;;3.40;;
20084;SDS011;10202;48.474;9.138;2023-10-08T12:50:51;16.67;;;3.42;;
20084;SDS011;10202;48.474;9.138;2023-10-08T12:53:26;19.17;;;3.63;;
20084;SDS011;10202;48.474;9.138;2023-10-08T12:56:01;16.08;;;3.70;;
20084;SDS011;10202;48.474;9.138;2023-10-08T12:58:47;16.98;;;3.53;;
20084;SDS011;10202;48.474;9.138;2023-10-08T13:01:21;21.05;;;3.42;;
20084;SDS011;10202;48.474;9.138;2023-10-08T13:03:56;11.70;;;3.45;;
20084;SDS011;10202;48.474;9.138;2023-10-08T13:06:32;20.70;;;3.55;;
20084;SDS011;10202;48.474;9.138;2023-10-08T13:09:06;17.73;;;3.60;;
20084;SDS011;10202;48.474;9.138;2023-10-08T13:11:40;18.90;;;3.35;;
20084;SDS011;10202;48.474;9.138;2023-10-08T13:14:05;17.17;;;3.42;;
20084;SDS011;10202;48.474;9.138;2023-10-08T13:16:31;20.60;;;4.00;;
20084;SDS011;10202;48.474;9.138;2023-10-08T13:18:59;14.10;;;3.10;;
20084;SDS011;10202;48.474;9.138;2023-10-08T13:21:27;10.90;;;3.55;;
20084;SDS011;10202;48.474;9.138;2023-10-08T13:23:56;12.25;;;3.40;;
20084;SDS011;10202;48.474;9.138;2023-10-08T13:26:27;12.18;;;3.58;;
20084;SDS011;10202;48.474;9.138;2023-10-08T13:28:58;23.92;;;3.70;;
20084;SDS011;10202;48.474;9.138;2023-10-08T13:31:24;17.35;;;3.47;;
20084;SDS011;10202;48.474;9.138;2023-10-08T13:33:50;15.80;;;3.50;;
20084;SDS011;10202;48.474;9.138;2023-10-08T13:36:17;14.85;;;2.63;;
20084;SDS011;10202;48.474;9.138;2023-10-08T13:38:47;22.75;;;3.65;;
20084;SDS011;10202;48.474;9.138;2023-10-08T13:41:13;17.38;;;4.03;;
20084;SDS011;10202;48.474;9.138;2023-10-08T13:43:49;17.27;;;2.88;;
20084;SDS011;10202;48.474;9.138;2023-10-08T13:46:18;12.60;;;3.50;;
20084;SDS011;10202;48.474;9.138;2023-10-08T13:48:52;13.85;;;3.83;;
20084;SDS011;10202;48.474;9.138;2023-10-08T13:51:23;12.40;;;3.35;;
20084;SDS011;10202;48.474;9.138;2023-10-08T13:53:52;12.07;;;3.10;;
20084;SDS011;10202;48.474;9.138;2023-10-08T13:56:24;24.15;;;4.25;;
20084;SDS011;10202;48.474;9.138;2023-10-08T13:58:55;17.67;;;3.92;;
20084;SDS011;10202;48.474;9.138;2023-10-08T14:01:40;20.95;;;3.40;;
20084;SDS011;10202;48.474;9.138;2023-10-08T14:04:11;11.55;;;3.17;;
20084;SDS011;10202;48.474;9.138;2023-10-08T14:06:42;22.20;;;3.63;;
20084;SDS011;10202;48.474;9.138;2023-10-08T14:09:13;10.15;;;3.33;;
20084;SDS011;10202;48.474;9.138;2023-10-08T14:11:50;23.50;;;3.90;;
20084;SDS011;10202;48.474;9.138;2023-10-08T14:14:17;13.18;;;3.53;;
20084;SDS011;10202;48.474;9.138;2023-10-08T14:16:47;15.15;;;3.80;;
20084;SDS011;10202;48.474;9.138;2023-10-08T14:19:17;18.45;;;3.53;;
20084;SDS011;10202;48.474;9.138;2023-10-08T14:21:55;14.90;;;3.80;;
20084;SDS011;10202;48.474;9.138;2023-10-08T14:24:30;20.23;;;3.20;;
20084;SDS011;10202;48.474;9.138;2023-10-08T14:27:00;15.45;;;3.65;;
20084;SDS011;10202;48.474;9.138;2023-10-08T14:29:33;12.55;;;3.40;;
20084;SDS011;10202;48.474;9.138;2023-10-08T14:32:03;17.83;;;3.60;;
20084;SDS011;10202;48.474;9.138;2023-10-08T14:34:34;18.88;;;3.25;;
20084;SDS011;10202;48.474;9.138;2023-10-08T14:37:14;18.20;;;3.60;;
20084;SDS011;10202;48.474;9.138;2023-10-08T14:40:01;12.63;;;3.17;;
20084;SDS011;10202;48.474;9.138;2023-10-08T14:42:45;21.05;;;3.22;;
20084;SDS011;10202;48.474;9.138;2023-10-08T14:45:32;13.57;;;3.28;;
20084;SDS011;10202;48.474;9.138;2023-10-08T14:48:08;11.73;;;2.88;;
20084;SDS011;10202;48.474;9.138;2023-10-08T14:50:38;18.45;;;3.20;;
20084;SDS011;10202;48.474;9.138;2023-10-08T14:53:08;27.00;;;4.07;;
20084;SDS011;10202;48.474;9.138;2023-10-08T14:55:37;15.30;;;3.03;;
20084;SDS011;10202;48.474;9.138;2023-10-08T14:58:05;15.38;;;3.38;;
20084;SDS011;10202;48.474;9.138;2023-10-08T15:00:35;15.88;;;4.00;;
20084;SDS011;10202;48.474;9.138;2023-10-08T15:03:04;16.50;;;3.85;;
20084;SDS011;10202;48.474;9.138;2023-10-08T15:05:30;16.67;;;3.40;;
20084;SDS011;10202;48.474;9.138;2023-10-08T15:08:03;12.35;;;3.30;;
20084;SDS011;10202;48.474;9.138;2023-10-08T15:10:35;23.77;;;3.25;;
20084;SDS011;10202;48.474;9.138;2023-10-08T15:13:00;14.30;;;3.58;;
20084;SDS011;10202;48.474;9.138;2023-10-08T15:15:28;14.02;;;3.63;;
20084;SDS011;10202;48.474;9.138;2023-10-08T15:18:00;14.02;;;3.50;;
20084;SDS011;10202;48.474;9.138;2023-10-08T15:20:33;20.55;;;3.58;;
20084;SDS011;10202;48.474;9.138;2023-10-08T15:23:02;17.77;;;3.35;;